createdAt,value
2018-07-24T00:01:21.421Z,78.77
2018-07-24T00:03:51.849Z,79.20
2018-07-24T00:06:22.012Z,78.93
2018-07-24T00:08:52.252Z,78.45
2018-07-24T00:11:22.394Z,78.06
2018-07-24T00:13:52.564Z,77.51
2018-07-24T00:16:22.540Z,77.31
2018-07-24T00:18:53.089Z,77.44
2018-07-24T00:21:23.413Z,78.61
2018-07-24T00:23:53.756Z,78.30
2018-07-24T00:26:23.766Z,78.65
2018-07-24T00:28:54.776Z,78.27
2018-07-24T00:31:24.696Z,77.65
2018-07-24T00:33:55.170Z,77.95
2018-07-24T00:36:25.459Z,76.91
2018-07-24T00:38:55.648Z,77.11
2018-07-24T00:41:25.491Z,77.00
2018-07-24T00:43:55.861Z,77.09
2018-07-24T00:46:26.958Z,77.48
2018-07-24T00:48:57.104Z,77.29
2018-07-24T00:51:27.224Z,76.45
2018-07-24T00:53:57.426Z,76.90
2018-07-24T00:56:27.605Z,77.34
2018-07-24T00:58:57.670Z,77.06
2018-07-24T01:01:27.851Z,76.68
2018-07-24T01:03:59.045Z,77.04
2018-07-24T01:06:29.389Z,77.80
2018-07-24T01:08:59.702Z,77.88
2018-07-24T01:11:29.592Z,77.98
2018-07-24T01:14:01.573Z,78.56
2018-07-24T01:16:31.663Z,78.25
2018-07-24T01:19:01.880Z,78.75
2018-07-24T01:21:31.782Z,78.93
2018-07-24T01:24:02.311Z,79.17
2018-07-24T01:26:32.475Z,79.30
2018-07-24T01:29:02.511Z,79.52
2018-07-24T01:31:32.520Z,80.07
2018-07-24T01:34:02.530Z,80.46
2018-07-24T01:36:32.653Z,80.51
2018-07-24T01:39:03.056Z,81.27
2018-07-24T01:41:33.329Z,81.27
2018-07-24T01:44:03.243Z,81.67
2018-07-24T01:46:33.386Z,81.83
2018-07-24T01:49:03.355Z,81.73
2018-07-24T01:51:33.510Z,81.68
2018-07-24T01:54:03.668Z,82.89
2018-07-24T01:56:33.916Z,81.82
2018-07-24T01:59:04.257Z,81.79
2018-07-24T02:01:34.482Z,81.78
2018-07-24T02:04:04.671Z,82.31
2018-07-24T02:06:34.881Z,82.99
2018-07-24T02:09:05.634Z,83.49
2018-07-24T02:11:35.805Z,83.12
2018-07-24T02:14:06.235Z,82.78
2018-07-24T02:16:36.368Z,84.19
2018-07-24T02:19:07.043Z,84.41
2018-07-24T02:21:37.095Z,84.76
2018-07-24T02:24:07.205Z,84.87
2018-07-24T02:26:37.426Z,85.43
2018-07-24T02:29:08.702Z,85.78
2018-07-24T02:31:39.209Z,85.79
2018-07-24T02:34:09.332Z,85.35
2018-07-24T02:36:39.461Z,85.62
2018-07-24T02:39:13.805Z,86.10
2018-07-24T02:41:43.946Z,86.48
2018-07-24T02:44:14.157Z,87.11
2018-07-24T02:46:44.807Z,87.06
2018-07-24T02:49:14.816Z,87.43
2018-07-24T02:51:45.054Z,88.12
2018-07-24T02:54:15.246Z,88.37
2018-07-24T02:56:45.311Z,88.53
2018-07-24T02:59:16.607Z,88.51
2018-07-24T03:01:46.551Z,88.82
2018-07-24T03:04:17.113Z,89.06
2018-07-24T03:06:47.489Z,89.27
2018-07-24T03:09:17.712Z,88.36
2018-07-24T03:11:48.777Z,88.71
2018-07-24T03:14:19.116Z,88.71
2018-07-24T03:16:49.409Z,87.73
2018-07-24T03:19:19.485Z,87.88
2018-07-24T03:21:49.805Z,87.50
2018-07-24T03:24:19.981Z,87.31
2018-07-24T03:26:49.931Z,86.71
2018-07-24T03:29:20.249Z,86.17
2018-07-24T03:31:50.283Z,86.58
2018-07-24T03:34:20.320Z,86.12
2018-07-24T03:36:50.445Z,86.66
2018-07-24T03:39:20.827Z,88.54
2018-07-24T03:41:51.907Z,88.31
2018-07-24T03:44:22.406Z,88.49
2018-07-24T03:46:53.651Z,89.13
2018-07-24T03:49:23.668Z,89.40
2018-07-24T03:51:53.630Z,88.83
2018-07-24T03:54:23.838Z,89.32
2018-07-24T03:56:53.759Z,89.55
2018-07-24T03:59:23.918Z,89.35
2018-07-24T04:01:54.638Z,89.63
2018-07-24T04:04:24.874Z,88.83
2018-07-24T04:06:55.066Z,89.06
2018-07-24T04:09:25.325Z,89.15
2018-07-24T04:11:57.556Z,89.13
2018-07-24T04:14:31.495Z,89.03
2018-07-24T04:17:01.696Z,89.26
2018-07-24T04:19:31.889Z,88.16
2018-07-24T04:22:02.024Z,89.07
2018-07-24T04:24:32.173Z,88.53
2018-07-24T04:27:02.291Z,88.43
2018-07-24T04:29:32.562Z,87.88
2018-07-24T04:32:02.720Z,88.38
2018-07-24T04:34:32.922Z,88.06
2018-07-24T04:37:03.054Z,87.69
2018-07-24T04:39:33.055Z,88.44
2018-07-24T04:42:04.347Z,87.68
2018-07-24T04:44:34.632Z,87.09
2018-07-24T04:47:04.905Z,85.81
2018-07-24T04:49:35.371Z,85.48
2018-07-24T04:52:05.802Z,85.52
2018-07-24T04:54:36.070Z,85.46
2018-07-24T04:57:07.144Z,84.02
2018-07-24T04:59:37.362Z,84.41
2018-07-24T05:02:07.784Z,83.78
2018-07-24T05:04:38.078Z,82.40
2018-07-24T05:07:08.395Z,81.81
2018-07-24T05:09:38.774Z,82.04
2018-07-24T05:12:09.027Z,82.05
2018-07-24T05:14:39.521Z,81.86
2018-07-24T05:17:09.866Z,81.41
2018-07-24T05:19:40.277Z,81.24
2018-07-24T05:22:10.403Z,81.13
2018-07-24T05:24:40.532Z,81.36
2018-07-24T05:27:10.772Z,81.33
2018-07-24T05:29:40.994Z,80.94
2018-07-24T05:32:12.117Z,79.52
2018-07-24T05:34:42.465Z,79.20
2018-07-24T05:37:12.523Z,79.27
2018-07-24T05:39:42.534Z,78.92
2018-07-24T05:42:12.889Z,77.71
2018-07-24T05:44:43.340Z,77.86
2018-07-24T05:47:13.570Z,78.45
2018-07-24T05:49:43.702Z,77.78
2018-07-24T05:52:13.841Z,78.55
2018-07-24T05:54:45.132Z,76.73
2018-07-24T05:57:15.376Z,76.76
2018-07-24T05:59:45.395Z,77.69
2018-07-24T06:02:15.663Z,76.77
2018-07-24T06:04:45.567Z,77.46
2018-07-24T06:07:15.794Z,77.32
2018-07-24T06:09:45.627Z,75.32
2018-07-24T06:12:16.003Z,75.62
2018-07-24T06:14:46.391Z,74.70
2018-07-24T06:17:16.612Z,74.64
2018-07-24T06:19:46.684Z,74.72
2018-07-24T06:22:17.009Z,74.12
2018-07-24T06:24:47.491Z,72.98
2018-07-24T06:27:17.864Z,73.60
2018-07-24T06:29:47.908Z,73.43
2018-07-24T06:32:18.046Z,73.07
2018-07-24T06:34:48.818Z,72.65
2018-07-24T06:37:19.151Z,72.03
2018-07-24T06:39:49.586Z,72.14
2018-07-24T06:42:19.747Z,71.59
2018-07-24T06:44:49.949Z,70.85
2018-07-24T06:47:20.236Z,70.78
2018-07-24T06:49:50.262Z,69.91
2018-07-24T06:52:20.334Z,70.20
2018-07-24T06:54:50.811Z,69.45
2018-07-24T06:57:21.036Z,70.33
2018-07-24T06:59:51.375Z,70.50
2018-07-24T07:02:21.444Z,70.49
2018-07-24T07:04:51.826Z,69.60
2018-07-24T07:07:21.940Z,69.84
2018-07-24T07:09:51.961Z,69.83
2018-07-24T07:12:22.019Z,68.58
2018-07-24T07:14:52.391Z,69.10
2018-07-24T07:17:22.551Z,69.19
2018-07-24T07:19:52.873Z,66.83
2018-07-24T07:22:23.103Z,67.71
2018-07-24T07:24:53.462Z,68.50
2018-07-24T07:27:23.865Z,66.58
2018-07-24T07:29:54.252Z,67.88
2018-07-24T07:32:24.297Z,66.44
2018-07-24T07:34:54.394Z,67.50
2018-07-24T07:37:24.658Z,66.14
2018-07-24T07:39:55.107Z,64.72
2018-07-24T07:42:25.168Z,64.61
2018-07-24T07:44:55.436Z,66.82
2018-07-24T07:47:25.673Z,64.88
2018-07-24T07:49:55.719Z,64.26
2018-07-24T07:52:26.093Z,62.07
2018-07-24T07:54:56.317Z,62.26
2018-07-24T07:57:26.351Z,62.67
2018-07-24T07:59:56.394Z,62.36
2018-07-24T08:02:26.629Z,60.29
2018-07-24T08:04:56.808Z,59.43
2018-07-24T08:07:26.981Z,61.44
2018-07-24T08:09:57.344Z,60.31
2018-07-24T08:12:27.777Z,58.80
2018-07-24T08:14:57.972Z,59.39
2018-07-24T08:17:28.284Z,59.99
2018-07-24T08:19:58.464Z,59.30
2018-07-24T08:22:28.744Z,59.17
2018-07-24T08:25:02.815Z,57.69
2018-07-24T08:27:33.155Z,57.64
2018-07-24T08:30:03.421Z,59.10
2018-07-24T08:32:35.785Z,58.30
2018-07-24T08:35:05.904Z,57.62
2018-07-24T08:37:36.111Z,57.04
2018-07-24T08:40:06.990Z,56.53
2018-07-24T08:42:37.579Z,56.48
2018-07-24T08:45:08.251Z,56.56
2018-07-24T08:47:41.487Z,56.09
2018-07-24T08:50:11.658Z,56.22
2018-07-24T08:52:41.947Z,56.87
2018-07-24T08:55:12.455Z,56.19
2018-07-24T08:57:43.514Z,56.63
2018-07-24T09:00:13.769Z,55.99
2018-07-24T09:02:43.874Z,53.88
2018-07-24T09:05:14.118Z,55.08
2018-07-24T09:07:44.167Z,54.42
2018-07-24T09:10:14.416Z,54.07
2018-07-24T09:12:44.432Z,53.99
2018-07-24T09:15:14.725Z,52.36
2018-07-24T09:17:45.152Z,54.01
2018-07-24T09:20:15.605Z,54.71
2018-07-24T09:22:45.956Z,52.17
2018-07-24T09:25:17.170Z,53.03
2018-07-24T09:27:47.305Z,55.09
2018-07-24T09:30:17.452Z,53.10
2018-07-24T09:32:47.759Z,53.60
2018-07-24T09:35:17.704Z,52.27
2018-07-24T09:37:48.162Z,51.85
2018-07-24T09:40:18.444Z,51.90
2018-07-24T09:42:48.951Z,52.01
2018-07-24T09:45:19.148Z,51.86
2018-07-24T09:47:49.393Z,51.58
2018-07-24T09:50:19.693Z,52.00
2018-07-24T09:52:50.026Z,50.82
2018-07-24T09:55:20.489Z,50.94
2018-07-24T09:57:50.786Z,50.47
2018-07-24T10:00:24.990Z,49.41
2018-07-24T10:02:55.050Z,49.97
2018-07-24T10:05:25.350Z,48.96
2018-07-24T10:07:55.721Z,48.64
2018-07-24T10:10:26.062Z,47.93
2018-07-24T10:12:57.101Z,47.23
2018-07-24T10:15:27.371Z,48.68
2018-07-24T10:17:57.734Z,48.68
2018-07-24T10:20:28.845Z,49.25
2018-07-24T10:22:59.166Z,47.54
2018-07-24T10:25:29.757Z,47.39
2018-07-24T10:28:00.110Z,47.89
2018-07-24T10:30:30.414Z,49.60
2018-07-24T10:33:00.686Z,46.88
2018-07-24T10:35:30.870Z,47.92
2018-07-24T10:38:01.179Z,45.75
2018-07-24T10:40:32.389Z,46.81
2018-07-24T10:43:02.530Z,47.15
2018-07-24T10:45:33.634Z,47.60
2018-07-24T10:48:03.545Z,44.25
2018-07-24T10:50:33.841Z,43.53
2018-07-24T10:53:04.286Z,43.15
2018-07-24T10:55:34.357Z,43.46
2018-07-24T10:58:05.070Z,43.91
2018-07-24T11:00:35.375Z,44.16
2018-07-24T11:03:05.693Z,42.91
2018-07-24T11:05:36.600Z,44.13
2018-07-24T11:08:07.014Z,42.20
2018-07-24T11:10:37.496Z,41.01
2018-07-24T11:13:07.866Z,42.21
2018-07-24T11:15:38.527Z,40.70
2018-07-24T11:18:08.592Z,40.46
2018-07-24T11:20:38.898Z,40.20
2018-07-24T11:23:09.340Z,40.71
2018-07-24T11:25:39.668Z,38.71
2018-07-24T11:28:09.859Z,36.57
2018-07-24T11:30:40.090Z,36.20
2018-07-24T11:33:10.330Z,38.49
2018-07-24T11:35:40.778Z,38.17
2018-07-24T11:38:11.035Z,38.63
2018-07-24T11:40:41.465Z,36.41
2018-07-24T11:43:11.664Z,37.48
2018-07-24T11:45:41.596Z,34.93
2018-07-24T11:48:11.697Z,35.00
2018-07-24T11:50:41.739Z,34.70
2018-07-24T11:53:11.961Z,34.49
2018-07-24T11:55:41.951Z,35.12
2018-07-24T11:58:12.176Z,34.98
2018-07-24T12:00:42.071Z,35.60
2018-07-24T12:03:12.535Z,37.04
2018-07-24T12:05:42.562Z,36.13
2018-07-24T12:08:12.862Z,34.79
2018-07-24T12:10:43.217Z,36.01
2018-07-24T12:13:14.544Z,36.17
2018-07-24T12:15:44.534Z,37.35
2018-07-24T12:18:18.796Z,36.61
2018-07-24T12:20:50.430Z,36.41
2018-07-24T12:23:22.595Z,36.92
2018-07-24T12:26:24.241Z,36.44
2018-07-24T12:29:22.920Z,36.27
2018-07-24T12:32:20.868Z,35.81
2018-07-24T12:35:20.255Z,35.50
2018-07-24T12:38:18.633Z,33.25
2018-07-24T12:41:17.697Z,35.25
2018-07-24T12:44:16.788Z,35.86
2018-07-24T12:47:14.828Z,36.33
2018-07-24T12:50:12.916Z,34.45
2018-07-24T12:53:11.516Z,34.08
2018-07-24T12:56:09.591Z,37.30
2018-07-24T12:59:08.591Z,36.56
2018-07-24T13:02:06.586Z,36.96
2018-07-24T13:05:05.663Z,37.09
2018-07-24T13:08:03.479Z,35.83
2018-07-24T13:11:01.512Z,35.19
2018-07-24T13:13:59.704Z,36.38
2018-07-24T13:16:59.112Z,36.22
2018-07-24T13:19:57.459Z,37.46
2018-07-24T13:22:55.633Z,38.44
2018-07-24T13:26:02.842Z,34.07
2018-07-24T13:29:01.477Z,33.89
2018-07-24T13:31:59.864Z,34.33
2018-07-24T13:34:58.225Z,34.58
2018-07-24T13:37:56.410Z,33.74
2018-07-24T13:40:54.605Z,36.20
2018-07-24T13:43:52.549Z,34.67
2018-07-24T13:46:50.669Z,34.30
2018-07-24T13:49:48.744Z,34.08
2018-07-24T13:52:46.896Z,33.69
2018-07-24T13:55:45.408Z,32.77
2018-07-24T13:58:43.569Z,32.17
2018-07-24T14:01:41.729Z,33.71
2018-07-24T14:04:39.637Z,33.42
2018-07-24T14:07:37.786Z,33.37
2018-07-24T14:10:35.876Z,33.36
2018-07-24T14:13:33.833Z,34.43
2018-07-24T14:16:32.101Z,32.42
2018-07-24T14:19:30.269Z,33.62
2018-07-24T15:38:13.631Z,30.63
2018-07-24T15:41:13.188Z,30.30
2018-07-24T15:44:13.159Z,30.39
2018-07-24T15:47:11.498Z,30.13
2018-07-24T15:50:09.806Z,29.77
2018-07-24T15:53:09.228Z,29.28
2018-07-24T15:56:07.241Z,28.29
2018-07-24T15:59:06.461Z,28.96
2018-07-24T16:02:04.754Z,29.58
2018-07-24T16:05:02.986Z,30.51
2018-07-24T16:08:01.169Z,31.32
2018-07-24T16:10:59.358Z,30.99
2018-07-24T16:13:57.476Z,31.16
2018-07-24T16:16:56.033Z,31.39
2018-07-24T16:19:54.116Z,29.75
2018-07-24T16:22:52.488Z,29.39
2018-07-24T16:25:50.804Z,29.10
2018-07-24T16:28:48.999Z,27.97
2018-07-24T16:31:47.188Z,28.81
2018-07-24T16:34:46.039Z,28.21
2018-07-24T16:37:44.336Z,28.73
2018-07-24T16:40:42.870Z,27.79
2018-07-24T16:43:41.156Z,27.48
2018-07-24T16:46:39.476Z,27.62
2018-07-24T16:49:38.713Z,27.27
2018-07-24T16:52:37.055Z,27.56
2018-07-24T16:55:35.193Z,27.69
2018-07-24T16:58:33.464Z,27.25
2018-07-24T17:01:32.476Z,27.85
2018-07-24T17:04:30.953Z,29.36
2018-07-24T17:07:32.553Z,29.07
2018-07-24T17:10:30.416Z,30.55
2018-07-24T17:13:28.532Z,31.40
2018-07-24T17:16:26.669Z,31.77
2018-07-24T17:19:25.021Z,33.39
2018-07-24T17:22:23.336Z,33.25
2018-07-24T17:25:21.450Z,33.57
2018-07-24T17:28:21.736Z,35.19
2018-07-24T17:31:20.882Z,35.19
2018-07-24T17:34:22.857Z,36.02
2018-07-24T17:37:23.743Z,37.13
2018-07-24T17:40:25.287Z,37.29
2018-07-24T17:46:42.218Z,38.39
2018-07-24T17:49:40.298Z,39.07
2018-07-24T17:52:38.522Z,39.56
2018-07-24T17:55:36.928Z,39.11
2018-07-24T17:58:35.102Z,39.90
2018-07-24T18:01:33.600Z,40.45
2018-07-24T18:04:31.760Z,40.97
2018-07-24T18:07:30.192Z,42.19
2018-07-24T18:10:30.367Z,43.07
2018-07-24T18:13:28.637Z,43.06
2018-07-24T18:16:27.781Z,44.41
2018-07-24T18:19:26.275Z,45.44
2018-07-24T18:22:24.317Z,46.53
2018-07-24T18:25:22.308Z,47.55
2018-07-24T18:28:20.739Z,47.75
2018-07-24T18:31:18.800Z,48.35
2018-07-24T18:34:16.895Z,48.83
2018-07-24T18:37:14.720Z,49.68
2018-07-24T18:40:13.913Z,50.18
2018-07-24T18:43:11.627Z,50.72
2018-07-24T18:46:09.785Z,51.53
2018-07-24T18:49:07.853Z,52.04
2018-07-24T18:52:07.735Z,51.67
2018-07-24T18:55:06.168Z,53.75
2018-07-24T18:58:04.409Z,55.08
2018-07-24T19:01:02.729Z,56.46
2018-07-24T19:04:00.833Z,56.45
2018-07-24T19:07:00.083Z,56.44
2018-07-24T19:09:58.292Z,56.97
2018-07-24T19:12:56.485Z,56.74
2018-07-24T19:15:55.697Z,57.67
2018-07-24T19:18:54.234Z,58.31
2018-07-24T19:21:52.377Z,58.95
2018-07-24T19:24:50.824Z,58.93
2018-07-24T19:27:48.729Z,59.04
2018-07-24T19:30:47.124Z,59.27
2018-07-24T19:33:45.227Z,58.97
2018-07-24T19:36:43.497Z,59.94
2018-07-24T19:39:42.158Z,60.22
2018-07-24T19:42:40.145Z,60.86
2018-07-24T19:45:38.191Z,60.40
2018-07-24T19:48:36.280Z,61.34
2018-07-24T19:51:34.428Z,61.84
2018-07-24T19:54:32.710Z,62.89
2018-07-24T19:57:30.741Z,62.65
2018-07-24T20:00:29.926Z,63.17
2018-07-24T20:03:28.194Z,63.80
2018-07-24T20:06:26.064Z,65.33
2018-07-24T20:09:25.124Z,66.01
2018-07-24T20:12:23.420Z,65.77
2018-07-24T20:15:21.552Z,66.28
2018-07-24T20:18:19.534Z,66.86
2018-07-24T20:21:17.729Z,67.16
2018-07-24T20:24:16.790Z,67.42
2018-07-24T20:27:16.969Z,67.60
2018-07-24T20:30:15.278Z,68.04
2018-07-24T20:33:13.360Z,68.50
2018-07-24T20:36:11.385Z,68.72
2018-07-24T20:39:09.210Z,68.50
2018-07-24T20:42:07.397Z,68.49
2018-07-24T20:45:06.153Z,68.23
2018-07-24T20:48:04.451Z,68.66
2018-07-24T20:51:03.488Z,69.06
2018-07-24T20:54:02.892Z,68.96
2018-07-24T20:57:01.404Z,69.42
2018-07-24T21:00:01.668Z,70.17
2018-07-24T21:03:00.887Z,70.47
2018-07-24T21:05:59.202Z,70.23
2018-07-24T21:08:57.077Z,70.54
2018-07-24T21:11:56.214Z,70.41
2018-07-24T21:14:54.325Z,71.07
2018-07-24T21:17:52.630Z,70.46
2018-07-24T21:20:50.848Z,71.08
2018-07-24T21:23:48.881Z,71.77
2018-07-24T21:26:47.283Z,72.98
2018-07-24T21:29:45.250Z,73.16
2018-07-24T21:32:43.425Z,73.81
2018-07-24T21:35:42.416Z,73.50
2018-07-24T21:38:40.513Z,74.01
2018-07-24T21:41:38.446Z,73.53
2018-07-24T21:44:36.573Z,73.88
2018-07-24T21:47:35.784Z,74.36
2018-07-24T21:50:34.134Z,75.23
2018-07-24T21:53:33.356Z,75.91
2018-07-24T21:56:31.349Z,76.11
2018-07-24T21:59:29.361Z,76.24
2018-07-24T22:02:28.410Z,76.20
2018-07-24T22:05:26.704Z,76.92
2018-07-24T22:08:24.786Z,77.54
2018-07-24T22:11:23.544Z,77.07
2018-07-24T22:14:21.685Z,76.52
2018-07-24T22:17:19.916Z,75.88
2018-07-24T22:20:18.051Z,76.12
2018-07-24T22:23:16.354Z,77.22
2018-07-24T22:26:14.866Z,76.84
2018-07-24T22:29:13.206Z,77.80
2018-07-24T22:32:11.333Z,79.42
2018-07-24T22:35:10.361Z,79.21
2018-07-24T22:38:08.608Z,80.17
2018-07-24T22:41:06.904Z,81.04
2018-07-24T22:44:04.700Z,80.86
2018-07-24T22:47:02.629Z,80.04
2018-07-24T22:50:03.902Z,80.04
2018-07-24T22:53:02.414Z,81.81
2018-07-24T22:56:00.750Z,82.25
2018-07-24T22:58:58.869Z,82.68
2018-07-24T23:01:58.209Z,82.43
2018-07-24T23:04:56.592Z,82.33
2018-07-24T23:07:54.561Z,81.85
2018-07-24T23:10:52.731Z,81.32
2018-07-24T23:13:52.100Z,80.03
2018-07-24T23:16:50.590Z,80.08
2018-07-24T23:19:48.829Z,82.36
2018-07-24T23:22:47.116Z,82.48
2018-07-24T23:25:45.314Z,82.53
2018-07-24T23:28:43.325Z,83.24
2018-07-24T23:31:41.620Z,83.17
2018-07-24T23:34:39.856Z,82.55
2018-07-24T23:37:37.925Z,83.13
2018-07-24T23:40:36.364Z,82.70
2018-07-24T23:43:34.357Z,82.36
2018-07-24T23:46:34.856Z,81.97
2018-07-24T23:49:32.636Z,82.45
2018-07-24T23:52:30.968Z,81.84
2018-07-24T23:55:29.160Z,81.81
2018-07-24T23:58:27.271Z,80.81
